Latest Weather Observations for Bushy Park

IDT60901

Issued at 4:15 pm EST Sunday 21 September 2014 (issued every 10 minutes, with the page automatically refreshed every 10 minutes)

About weather observations | Map of Hobart area stations | Latest observations for Hobart area | Other Formats
Station Details ID: 095003 Name: BUSHY PARK (BUSHY PARK ESTATES) Lat: -42.71 Lon: 146.90 Height: 27.0 m
Data from the previous 72 hours. | See also: Recent months at Bushy Park
Date/Time
EST
Tmp

°C
App
Tmp
°C
Dew
Point
°C
Rel
Hum
%
Delta-T

°C
Wind Press
QNH
hPa
Press
MSL
hPa
Rain
since
9 am
mm
Dir
 
Spd
km/h
Gust
km/h
Spd
kts
Gust
kts
21/04:00pm 17.3 12.4 5.1 44 5.9 W 20 32 11 17 - - 0.0
21/03:30pm 17.7 12.4 5.1 43 6.1 W 22 35 12 19 - - 0.0
21/03:00pm 17.8 12.8 4.7 42 6.3 WNW 20 30 11 16 - - 0.0
21/02:30pm 18.5 14.3 5.8 43 6.2 WNW 17 24 9 13 - - 0.0
21/02:00pm 18.5 13.7 5.8 43 6.2 NW 20 32 11 17 - - 0.0
21/01:30pm 18.2 13.3 5.3 42 6.3 NW 20 32 11 17 - - 0.0
21/01:00pm 18.3 14.3 4.9 41 6.4 W 15 26 8 14 - - 0.0
21/12:30pm 17.6 14.1 5.3 44 5.9 WSW 13 22 7 12 - - 0.0
21/12:00pm 17.6 13.9 4.4 41 6.3 NW 13 20 7 11 - - 0.0
21/11:30am 17.4 13.7 4.7 43 6.0 NNW 13 20 7 11 - - 0.0
21/11:00am 16.6 14.1 4.7 45 5.6 SW 7 9 4 5 - - 0.0
21/10:30am 17.1 13.4 6.2 48 5.3 NNW 15 22 8 12 - - 0.0
21/10:00am 15.9 12.7 5.3 49 5.1 N 11 26 6 14 - - 0.0
21/09:30am 14.3 11.4 4.7 52 4.5 SW 9 15 5 8 - - 0.0
21/09:00am 13.2 10.5 5.6 60 3.6 NNE 9 11 5 6 - - 0.0
21/08:30am 12.5 10.1 7.2 70 2.6 N 9 13 5 7 - - 0.0
21/08:00am 12.1 10.6 6.7 69 2.6 SSE 4 7 2 4 - - 0.0
21/07:30am 11.5 9.4 6.7 72 2.3 NW 7 13 4 7 - - 0.0
21/07:00am 11.1 8.5 6.2 72 2.3 NE 9 17 5 9 - - 0.0
21/06:30am 11.2 9.2 6.4 72 2.3 E 6 11 3 6 - - 0.0
21/06:00am 11.8 7.3 5.9 67 2.8 NNW 19 26 10 14 - - 0.0
21/05:30am 11.5 7.6 5.5 66 2.8 N 15 26 8 14 - - 0.0
21/05:00am 11.5 6.5 4.7 63 3.1 NNW 20 35 11 19 - - 0.0
21/04:30am 11.4 6.5 4.1 61 3.3 NNW 19 28 10 15 - - 0.0
21/04:00am 11.2 8.0 4.9 65 2.9 NNW 11 15 6 8 - - 0.0
21/03:30am 10.8 7.0 4.1 63 3.0 N 13 17 7 9 - - 0.0
21/03:00am 10.3 6.6 4.3 66 2.7 N 13 22 7 12 - - 0.0
21/02:30am 11.4 7.2 3.6 58 3.5 NNW 15 20 8 11 - - 0.0
21/02:00am 11.3 6.6 3.4 58 3.5 NW 17 32 9 17 - - 0.0
21/01:30am 11.0 6.7 3.3 59 3.4 NW 15 30 8 16 - - 0.0
21/01:00am 9.3 5.8 3.6 67 2.5 NNW 11 15 6 8 - - 0.0
21/12:30am 9.7 6.2 3.3 64 2.8 NNW 11 15 6 8 - - 0.0
21/12:00am 10.7 5.4 3.2 60 3.3 NNW 20 26 11 14 - - 0.0
 
Date/Time
EST
Tmp

°C
App
Tmp
°C
Dew
Point
°C
Rel
Hum
%
Delta-T

°C
Wind Press
QNH
hPa
Press
MSL
hPa
Rain
since
9 am
mm
Dir
 
Spd
km/h
Gust
km/h
Spd
kts
Gust
kts
20/11:30pm 10.5 6.8 4.3 65 2.8 WNW 13 28 7 15 - - 0.0
20/11:00pm 10.4 7.0 4.2 65 2.8 NW 11 22 6 12 - - 0.0
20/10:30pm 10.2 7.5 5.4 72 2.2 NW 9 17 5 9 - - 0.0
20/10:00pm 10.3 7.6 5.5 72 2.2 W 9 15 5 8 - - 0.0
20/09:30pm 10.2 7.0 5.2 71 2.3 W 11 20 6 11 - - 0.0
20/09:00pm 10.1 7.4 5.8 74 2.0 WNW 9 17 5 9 - - 0.0
20/08:30pm 10.5 7.0 5.3 70 2.4 WNW 13 20 7 11 - - 0.0
20/08:00pm 10.2 6.9 4.7 68 2.5 NNW 11 15 6 8 - - 0.0
20/07:30pm 10.9 8.0 4.5 64 2.9 WNW 9 17 5 9 - - 0.0
20/07:00pm 10.7 7.7 4.0 63 3.0 W 9 15 5 8 - - 0.0
20/06:30pm 11.4 7.6 4.1 61 3.3 WNW 13 28 7 15 - - 0.0
20/06:00pm 11.7 6.9 4.5 61 3.3 N 19 26 10 14 - - 0.0
20/05:30pm 12.4 7.9 4.1 57 3.7 NW 17 26 9 14 - - 0.0
20/05:00pm 12.7 8.9 3.9 55 4.0 WNW 13 26 7 14 - - 0.0
20/04:30pm 13.4 8.9 4.3 54 4.2 NNW 17 24 9 13 - - 0.0
20/04:00pm 13.1 9.4 4.4 55 4.0 WNW 13 20 7 11 - - 0.0
20/03:30pm 13.0 7.4 5.4 60 3.5 SW 24 33 13 18 - - 0.0
20/03:00pm 14.3 10.4 5.2 54 4.3 NW 15 24 8 13 - - 0.0
20/02:30pm 14.5 10.8 4.2 50 4.7 SW 13 19 7 10 - - 0.0
20/02:00pm 16.1 12.2 5.3 48 5.2 W 15 26 8 14 - - 0.0
20/01:30pm 16.1 11.9 5.6 49 5.0 SW 17 26 9 14 - - 0.0
20/01:00pm 15.8 12.1 4.6 47 5.3 W 13 32 7 17 - - 0.0
20/12:30pm 14.1 8.9 5.7 57 4.0 SW 22 32 12 17 - - 0.0
20/12:00pm 16.2 11.3 4.9 47 5.4 NNW 20 35 11 19 - - 0.0
20/11:30am 14.6 11.9 5.4 54 4.3 W 9 17 5 9 - - 0.0
20/11:00am 14.0 11.9 5.9 58 3.9 NE 6 11 3 6 - - 0.0
20/10:30am 14.5 10.7 5.8 56 4.1 NNE 15 20 8 11 - - 0.0
20/10:00am 13.3 10.6 5.5 59 3.7 SW 9 13 5 7 - - 0.0
20/09:30am 13.8 11.2 5.9 59 3.8 ENE 9 13 5 7 - - 0.0
20/09:00am 13.2 9.5 6.1 62 3.4 ENE 15 20 8 11 - - 0.2
20/08:30am 11.7 8.4 6.5 70 2.5 NNE 13 19 7 10 - - 0.2
20/08:00am 11.2 9.2 6.4 72 2.3 NNW 6 9 3 5 - - 0.2
20/07:30am 9.2 6.6 6.0 80 1.5 N 9 15 5 8 - - 0.2
20/07:00am 8.0 5.2 5.3 83 1.2 N 9 11 5 6 - - 0.2
20/06:30am 8.0 6.9 5.1 82 1.3 CALM 0 6 0 3 - - 0.2
20/06:00am 7.8 5.6 5.1 83 1.2 NE 6 11 3 6 - - 0.2
20/05:30am 8.6 6.3 5.5 81 1.4 SSW 7 9 4 5 - - 0.2
20/05:00am 10.5 7.4 5.5 71 2.3 WNW 11 15 6 8 - - 0.2
20/04:30am 9.7 6.3 6.1 78 1.7 NNW 13 22 7 12 - - 0.2
20/04:00am 9.9 6.5 6.0 77 1.8 NNW 13 15 7 8 - - 0.2
20/03:30am 9.1 6.2 6.3 83 1.3 N 11 13 6 7 - - 0.2
20/03:00am 8.6 6.0 6.2 85 1.1 NNW 9 13 5 7 - - 0.2
20/02:30am 8.6 7.3 6.0 84 1.2 NE 2 9 1 5 - - 0.2
20/02:00am 10.3 7.4 6.5 77 1.8 W 11 24 6 13 - - 0.2
20/01:30am 9.9 6.9 5.8 75 1.9 WSW 11 19 6 10 - - 0.2
20/01:00am 10.0 5.8 5.7 74 2.0 WSW 17 30 9 16 - - 0.2
20/12:30am 10.5 6.1 5.0 69 2.5 WSW 17 32 9 17 - - 0.2
20/12:00am 11.4 7.4 4.9 64 3.0 WSW 15 28 8 15 - - 0.2
 
Date/Time
EST
Tmp

°C
App
Tmp
°C
Dew
Point
°C
Rel
Hum
%
Delta-T

°C
Wind Press
QNH
hPa
Press
MSL
hPa
Rain
since
9 am
mm
Dir
 
Spd
km/h
Gust
km/h
Spd
kts
Gust
kts
19/11:30pm 10.6 7.1 5.4 70 2.4 W 13 20 7 11 - - 0.2
19/11:00pm 9.3 6.8 6.5 83 1.3 NNW 9 13 5 7 - - 0.2
19/10:30pm 9.6 7.2 7.1 84 1.2 NE 9 15 5 8 - - 0.2
19/10:00pm 9.5 6.3 7.0 84 1.2 WSW 13 20 7 11 - - 0.2
19/09:30pm 9.5 7.5 7.2 85 1.1 W 7 13 4 7 - - 0.2
19/09:00pm 9.7 7.3 7.2 84 1.2 W 9 17 5 9 - - 0.2
19/08:30pm 9.5 6.7 7.0 84 1.2 W 11 15 6 8 - - 0.2
19/08:00pm 9.2 6.9 7.5 89 0.8 W 9 13 5 7 - - 0.2
19/07:30pm 9.8 7.0 6.9 82 1.4 WSW 11 15 6 8 - - 0.0
19/07:00pm 11.1 7.8 6.5 73 2.2 WNW 13 19 7 10 - - 0.0
19/06:30pm 11.8 8.3 5.4 65 3.0 NW 13 22 7 12 - - 0.0
19/06:00pm 12.4 9.4 4.3 57 3.7 W 9 17 5 9 - - 0.0
19/05:30pm 12.6 10.1 4.6 58 3.7 WSW 7 13 4 7 - - 0.0
19/05:00pm 13.3 9.4 3.3 50 4.5 WNW 13 20 7 11 - - 0.0
19/04:30pm 13.3 8.3 3.6 52 4.4 SW 19 30 10 16 - - 0.0
19/04:00pm 13.7 7.5 1.9 44 5.1 WSW 24 35 13 19 - - 0.0
19/03:30pm 14.2 8.6 0.1 38 5.9 WSW 19 37 10 20 - - 0.0
19/03:00pm 15.0 11.7 2.6 43 5.5 WSW 9 15 5 8 - - 0.0
19/02:30pm 14.5 8.8 2.7 45 5.3 WSW 22 39 12 21 - - 0.0
19/02:00pm 15.7 10.2 2.1 40 6.0 WSW 20 32 11 17 - - 0.0
19/01:30pm 15.7 9.6 0.5 35 6.5 WSW 22 39 12 21 - - 0.0
19/01:00pm 15.2 8.3 2.6 42 5.6 SW 28 50 15 27 - - 0.0
19/12:32pm 14.4 7.5 2.6 45 5.2 SW 28 54 15 29 - - 0.0
19/12:30pm 14.6 8.1 2.9 45 5.2 SW 26 54 14 29 - - 0.0
19/12:02pm 15.0 7.6 2.0 41 5.7 SW 30 48 16 26 - - 0.0
19/12:00pm 15.0 8.1 2.3 42 5.6 WSW 28 44 15 24 - - 0.0
19/11:30am 14.9 9.5 2.7 44 5.5 WSW 20 33 11 18 - - 0.0
19/11:07am 14.1 7.2 2.7 46 5.1 SW 28 50 15 27 - - 0.0
19/11:00am 14.3 7.9 3.3 47 5.0 WSW 26 50 14 27 - - 0.0
19/10:59am 14.2 7.3 2.6 45 5.1 WSW 28 50 15 27 - - 0.0
19/10:30am 13.0 8.1 4.3 55 4.0 SW 19 30 10 16 - - 0.0
19/10:00am 13.2 9.5 4.6 56 4.0 SW 13 24 7 13 - - 0.0
19/09:30am 13.4 10.8 5.9 60 3.6 WSW 9 15 5 8 - - 0.0
19/09:00am 12.9 10.2 5.7 61 3.4 WNW 9 15 5 8 - - 0.2
19/08:30am 12.2 10.1 5.9 65 3.0 NNE 6 9 3 5 - - 0.2
19/08:00am 11.4 8.2 5.1 65 2.9 WNW 11 20 6 11 - - 0.2
19/07:30am 10.7 7.6 5.5 70 2.4 N 11 19 6 10 - - 0.2
19/07:00am 10.3 7.2 5.5 72 2.2 WNW 11 19 6 10 - - 0.2
19/06:30am 8.8 6.8 6.4 85 1.1 NNE 6 13 3 7 - - 0.2
19/06:00am 9.2 7.2 6.2 81 1.4 N 6 11 3 6 - - 0.2
19/05:30am 9.6 6.7 6.4 80 1.5 N 11 17 6 9 - - 0.2
19/05:00am 9.8 5.6 5.5 74 2.0 NNW 17 22 9 12 - - 0.2
19/04:30am 10.0 6.8 5.0 71 2.3 WNW 11 22 6 12 - - 0.2
19/04:00am 10.4 6.7 4.2 65 2.8 NNE 13 20 7 11 - - 0.2
19/03:30am 10.2 6.8 4.2 66 2.7 NW 11 22 6 12 - - 0.2
19/03:00am 10.2 6.2 4.9 69 2.4 WNW 15 24 8 13 - - 0.2
19/02:30am 10.1 5.4 5.3 72 2.2 NNW 19 30 10 16 - - 0.2
19/02:00am 9.9 4.7 5.3 73 2.1 NNW 22 30 12 16 - - 0.2
19/01:30am 9.6 6.0 5.2 74 2.0 NW 13 26 7 14 - - 0.2
19/01:00am 9.5 4.8 5.3 75 1.9 NNW 19 30 10 16 - - 0.2
19/12:30am 9.1 5.9 5.1 76 1.8 NNW 11 17 6 9 - - 0.0
19/12:00am 8.6 4.6 4.8 77 1.7 NW 15 19 8 10 - - 0.0
 
Date/Time
EST
Tmp

°C
App
Tmp
°C
Dew
Point
°C
Rel
Hum
%
Delta-T

°C
Wind Press
QNH
hPa
Press
MSL
hPa
Rain
since
9 am
mm
Dir
 
Spd
km/h
Gust
km/h
Spd
kts
Gust
kts
18/11:30pm 8.6 5.3 4.6 76 1.8 WNW 11 17 6 9 - - 0.0
18/11:00pm 9.0 5.6 3.8 70 2.3 WNW 11 17 6 9 - - 0.0
18/10:30pm 9.5 5.5 3.1 64 2.8 NW 13 24 7 13 - - 0.0
18/10:00pm 9.0 4.2 2.4 63 2.8 NNW 17 26 9 14 - - 0.0
18/09:30pm 9.0 3.6 2.7 64 2.7 NNW 20 32 11 17 - - 0.0
18/09:00pm 8.7 4.3 2.9 67 2.5 NW 15 20 8 11 - - 0.0
18/08:30pm 9.0 4.2 2.7 64 2.7 NW 17 22 9 12 - - 0.0
18/08:00pm 9.4 4.5 1.8 59 3.2 WNW 17 30 9 16 - - 0.0
18/07:30pm 9.1 5.7 1.7 60 3.1 NW 9 20 5 11 - - 0.0
18/07:00pm 9.9 6.3 0.7 53 3.8 NW 9 15 5 8 - - 0.0
18/06:30pm 10.4 7.1 0.1 49 4.2 ESE 7 13 4 7 - - 0.0
18/06:00pm 10.3 7.2 0.3 50 4.1 WNW 6 13 3 7 - - 0.0
18/05:30pm 10.9 6.3 -0.8 44 4.7 W 13 30 7 16 - - 0.0
18/05:00pm 11.7 7.5 1.4 49 4.4 WNW 13 22 7 12 - - 0.0
18/04:30pm 12.0 7.2 2.4 52 4.2 W 17 28 9 15 - - 0.0

Latest Capital City Observations: Canberra | Sydney | Melbourne | Brisbane | Adelaide | Perth | Hobart | Darwin

Other Formats:

Comma delimited format used in spreadsheet applications
http://www.bom.gov.au/fwo/IDT60901/IDT60901.94964.axf

JavaScript Object Notation format (JSON) in row-major order
http://www.bom.gov.au/fwo/IDT60901/IDT60901.94964.json